Time;durP1;ratioP1;P1;durP2;ratioP2;P2;SDS_P1;SDS_P2;PMS_P1;PMS_P2;Temp;Humidity;BMP_temperature;BMP_pressure;BME280_temperature;BME280_humidity;BME280_pressure;Samples;Min_cycle;Max_cycle;Signal;HPM_P1;HPM_P2
2022/01/12 00:00:19;;;;;;;26.23;18.07;;;0.10;76.20;;;-1.99;83.43;97642.97;4942148;28;20031;-67
2022/01/12 00:02:45;;;;;;;27.83;17.70;;;0.10;76.20;;;-2.00;83.19;97647.28;4918757;28;20043;-68
2022/01/12 00:05:11;;;;;;;30.92;18.33;;;0.10;76.30;;;-2.02;83.12;97654.28;4932464;29;20031;-67
2022/01/12 00:07:36;;;;;;;28.30;17.80;;;0.00;76.80;;;-2.05;82.96;97649.22;4917128;29;20059;-67
2022/01/12 00:10:03;;;;;;;28.73;18.08;;;0.00;76.60;;;-2.08;83.27;97644.22;4932162;29;20047;-67
2022/01/12 00:12:29;;;;;;;31.55;18.90;;;0.00;76.80;;;-2.08;83.43;97646.81;4916793;29;20137;-67
2022/01/12 00:14:54;;;;;;;31.98;18.63;;;0.00;76.70;;;-2.11;83.23;97646.94;4928705;28;20453;-70
2022/01/12 00:17:20;;;;;;;28.60;18.17;;;0.00;76.60;;;-2.14;83.38;97644.53;4897821;29;20573;-67
2022/01/12 00:19:46;;;;;;;34.35;19.55;;;0.00;76.90;;;-2.15;83.15;97648.00;4941028;28;20134;-66
2022/01/12 00:22:13;;;;;;;29.60;18.77;;;0.00;76.80;;;-2.18;83.58;97653.31;4932240;29;20039;-67
2022/01/12 00:25:29;;;;;;;30.40;18.55;;;0.00;76.80;;;-2.21;83.71;97646.56;4915932;29;20050;-67
2022/01/12 00:33:13;;;;;;;32.85;19.23;;;0.00;76.90;;;-2.26;83.72;97639.97;4930112;28;20146;-66
2022/01/12 00:35:47;;;;;;;31.15;19.08;;;0.00;76.90;;;-2.27;84.13;97643.41;4926237;29;20508;-66
2022/01/12 00:38:14;;;;;;;29.73;18.65;;;0.00;77.20;;;-2.28;83.78;97636.59;4901423;29;20036;-67
2022/01/12 00:40:48;;;;;;;27.73;18.48;;;0.00;77.20;;;-2.28;84.08;97636.59;4916738;29;20126;-67
2022/01/12 00:43:15;;;;;;;31.70;19.25;;;0.00;77.30;;;-2.31;84.06;97637.56;4923516;29;20032;-66
2022/01/12 00:45:46;;;;;;;30.48;18.83;;;0.00;77.30;;;-2.30;84.38;97633.25;4912189;29;20673;-66
2022/01/12 00:48:13;;;;;;;30.67;20.00;;;-3276.70;77.30;;;-2.31;84.06;97641.91;4908563;29;20044;-66
2022/01/12 00:50:39;;;;;;;29.83;19.02;;;-3276.70;77.50;;;-2.33;84.33;97643.72;4947428;28;20044;-66
2022/01/12 00:53:05;;;;;;;29.90;19.70;;;-3276.70;77.40;;;-2.33;84.20;97648.88;4928182;29;20127;-66
2022/01/12 00:55:31;;;;;;;32.65;19.80;;;-3276.70;77.50;;;-2.34;84.71;97647.19;4915304;29;20079;-66
2022/01/12 00:57:58;;;;;;;31.88;20.27;;;-3276.70;77.70;;;-2.35;84.40;97640.38;4928359;29;20048;-66
2022/01/12 01:00:24;;;;;;;32.95;19.90;;;-3276.70;77.80;;;-2.35;84.44;97640.38;4899684;29;20405;-66
2022/01/12 01:02:50;;;;;;;29.85;18.48;;;-3276.70;77.70;;;-2.35;84.48;97645.53;4935159;28;20109;-66
2022/01/12 01:05:20;;;;;;;31.65;19.50;;;-3276.70;77.80;;;-2.36;84.60;97643.88;4898917;29;20065;-66
2022/01/12 01:07:45;;;;;;;30.40;19.80;;;-3276.70;77.80;;;-2.37;84.72;97637.88;4916336;29;20461;-66
2022/01/12 01:10:16;;;;;;;30.88;19.48;;;-3276.70;77.80;;;-2.38;84.68;97645.69;4930990;29;20098;-66
2022/01/12 01:12:42;;;;;;;28.95;19.05;;;-3276.70;77.70;;;-2.42;84.52;97639.00;4926841;29;20099;-66
2022/01/12 01:15:12;;;;;;;34.50;19.83;;;-3276.60;77.80;;;-2.44;84.65;97640.81;4911563;29;20039;-66
2022/01/12 01:25:42;;;;;;;31.58;20.02;;;-3276.50;77.80;;;-2.56;84.62;97648.19;4930579;29;20561;-66
2022/01/12 01:28:08;;;;;;;31.35;20.13;;;-3276.50;77.60;;;-2.60;84.46;97646.66;4919614;29;20170;-67
2022/01/12 01:30:35;;;;;;;29.85;19.25;;;-3276.40;77.50;;;-2.62;84.55;97642.50;4923674;29;20143;-66
2022/01/12 01:33:05;;;;;;;31.92;19.48;;;-3276.40;77.60;;;-2.66;84.79;97657.25;4925871;28;20107;-66
2022/01/12 01:35:32;;;;;;;33.20;19.05;;;-3276.30;77.80;;;-2.68;84.88;97661.66;4946430;28;20486;-66
2022/01/12 01:38:01;;;;;;;32.10;19.95;;;-3276.30;78.10;;;-2.70;84.63;97666.03;4927781;29;20051;-66
2022/01/12 01:40:27;;;;;;;30.98;19.98;;;-3276.30;78.20;;;-2.71;84.89;97656.63;4930141;29;20040;-66
2022/01/12 01:43:09;;;;;;;32.88;20.55;;;-3276.30;78.20;;;-2.72;84.55;97667.81;4927765;29;20547;-67
2022/01/12 01:53:49;;;;;;;37.63;21.33;;;-3276.10;78.30;;;-2.85;84.65;97652.09;4926972;29;20055;-66
2022/01/12 01:56:16;;;;;;;33.28;21.60;;;-3276.20;78.30;;;-2.87;84.75;97655.63;4924404;29;20488;-67
2022/01/12 01:58:41;;;;;;;33.60;21.35;;;-3276.10;78.30;;;-2.89;85.14;97649.72;4928863;28;20055;-69
2022/01/12 02:01:07;;;;;;;35.13;20.95;;;-3276.10;78.60;;;-2.93;85.08;97648.19;4928026;29;20040;-67
2022/01/12 02:03:33;;;;;;;35.00;21.60;;;-3276.10;78.60;;;-2.94;85.42;97655.09;4916546;29;20120;-66
2022/01/12 02:06:04;;;;;;;36.63;22.20;;;-3276.10;78.80;;;-2.97;85.44;97652.63;4916557;29;20071;-66
2022/01/12 02:08:30;;;;;;;34.60;20.88;;;-3276.00;79.00;;;-2.99;85.12;97664.72;4945035;28;20036;-66
2022/01/12 02:10:57;;;;;;;33.45;21.70;;;-3276.00;78.90;;;-3.00;85.32;97659.66;4913741;29;20107;-67
2022/01/12 02:13:23;;;;;;;38.05;22.65;;;-3276.00;78.90;;;-3.05;85.37;97659.03;4910976;29;20054;-67
2022/01/12 02:15:49;;;;;;;36.50;21.73;;;-3276.00;78.60;;;-3.08;85.39;97660.00;4911464;29;20076;-68
2022/01/12 02:40:54;;;;;;;37.30;22.33;;;-3275.70;79.10;;;-3.35;85.41;97680.03;4909383;29;20055;-67
2022/01/12 02:51:35;;;;;;;34.60;22.90;;;-3275.60;79.30;;;-3.38;85.56;97674.19;4912748;29;20106;-65
2022/01/12 02:54:01;;;;;;;37.83;22.45;;;-3275.60;79.30;;;-3.41;85.97;97673.38;4918601;29;20150;-66
2022/01/12 02:56:29;;;;;;;38.95;22.83;;;-3275.60;79.10;;;-3.40;86.10;97676.78;4913648;29;20036;-67
2022/01/12 02:58:59;;;;;;;38.55;22.88;;;-3275.60;79.20;;;-3.42;85.64;97676.84;4910588;29;20040;-66
2022/01/12 03:03:59;;;;;;;38.63;22.38;;;-3275.60;79.30;;;-3.43;85.70;97679.50;4925579;29;20040;-66
2022/01/12 03:06:31;;;;;;;37.83;22.98;;;-3275.60;79.40;;;-3.44;86.28;97682.97;4910263;29;20028;-66
2022/01/12 03:08:57;;;;;;;40.55;23.75;;;-3275.50;79.50;;;-3.46;86.41;97679.63;4926724;29;20531;-66
2022/01/12 03:11:24;;;;;;;38.72;24.10;;;-3275.50;79.80;;;-3.49;86.33;97679.75;4913918;29;20126;-66
2022/01/12 03:13:50;;;;;;;35.97;22.77;;;-3275.50;79.90;;;-3.48;86.03;97676.28;4910678;29;20505;-66
2022/01/12 03:16:18;;;;;;;41.88;23.88;;;-3275.50;79.90;;;-3.51;86.44;97676.41;4926310;29;20527;-66
2022/01/12 03:18:46;;;;;;;44.45;24.60;;;-3275.50;79.90;;;-3.52;86.32;97685.03;4890031;29;20044;-65
2022/01/12 03:21:12;;;;;;;39.92;23.90;;;-3275.50;79.90;;;-3.54;86.13;97685.09;4898013;29;20457;-65
2022/01/12 03:23:38;;;;;;;42.35;24.15;;;-3275.40;79.80;;;-3.55;86.38;97686.00;4930993;29;20534;-66
2022/01/12 03:26:05;;;;;;;38.10;21.90;;;-3275.50;79.60;;;-3.54;86.44;97692.00;4915851;29;20087;-66
2022/01/12 03:28:31;;;;;;;37.53;23.88;;;-3275.50;79.60;;;-3.55;86.32;97695.47;4907236;29;20456;-66
2022/01/12 03:34:24;;;;;;;41.70;23.80;;;-3275.50;79.80;;;-3.57;86.60;97692.94;4946335;28;20436;-67
2022/01/12 03:38:58;;;;;;;44.67;25.35;;;-3275.50;79.50;;;-3.59;86.90;97697.31;4928465;29;20122;-66
2022/01/12 03:41:25;;;;;;;45.38;24.83;;;-3275.50;79.60;;;-3.58;86.65;97693.84;4929971;29;20118;-66
2022/01/12 03:43:51;;;;;;;41.45;24.48;;;-3275.50;79.40;;;-3.58;86.91;97695.59;4937202;29;20050;-66
2022/01/12 03:46:19;;;;;;;42.95;25.45;;;-3275.50;79.40;;;-3.61;86.65;97698.28;4928205;29;20036;-68
2022/01/12 03:48:45;;;;;;;43.92;25.17;;;-3275.50;79.20;;;-3.61;86.48;97700.88;4897950;29;20178;-68
2022/01/12 03:51:10;;;;;;;44.42;25.63;;;-3275.50;79.30;;;-3.61;86.92;97695.72;4926827;29;20036;-67
2022/01/12 03:53:36;;;;;;;45.65;25.45;;;-3275.50;79.50;;;-3.61;86.89;97700.88;4931903;29;20048;-67
2022/01/12 03:56:02;;;;;;;42.95;24.73;;;-3275.50;79.60;;;-3.63;86.76;97693.19;4916124;29;20078;-67
2022/01/12 03:58:28;;;;;;;40.25;24.88;;;-3275.50;79.40;;;-3.62;86.86;97694.00;4915669;29;20151;-67
2022/01/12 04:00:53;;;;;;;41.83;24.30;;;-3275.50;79.30;;;-3.64;86.42;97694.09;4944277;29;20036;-67
2022/01/12 04:03:19;;;;;;;43.13;25.90;;;-3275.50;79.40;;;-3.64;86.87;97693.25;4939979;29;20067;-67
2022/01/12 04:08:29;;;;;;;43.10;26.25;;;-3275.40;79.50;;;-3.66;86.99;97702.75;4926734;29;20129;-67
2022/01/12 04:11:02;;;;;;;47.90;27.35;;;-3275.40;79.60;;;-3.67;87.37;97696.78;4931393;28;20043;-67
2022/01/12 04:13:29;;;;;;;45.08;25.40;;;-3275.40;79.80;;;-3.66;87.41;97707.91;4917162;29;20098;-67
2022/01/12 04:16:02;;;;;;;47.80;26.42;;;-3275.50;79.90;;;-3.64;87.55;97708.69;4916475;29;20035;-68
2022/01/12 04:18:28;;;;;;;45.20;25.63;;;-3275.50;80.00;;;-3.66;86.98;97719.03;4916422;29;20059;-67
2022/01/12 04:20:54;;;;;;;43.33;26.38;;;-3275.30;79.80;;;-3.67;87.52;97713.94;4915513;28;20031;-67
2022/01/12 04:23:22;;;;;;;46.13;26.35;;;-3275.40;79.80;;;-3.67;87.28;97714.78;4948904;28;20138;-67
2022/01/12 04:25:56;;;;;;;43.60;23.70;;;-3275.40;79.70;;;-3.65;87.17;97717.28;4918400;29;20547;-67
2022/01/12 04:28:22;;;;;;;43.80;25.75;;;-3275.40;79.40;;;-3.66;87.04;97713.88;4914074;29;20047;-67
2022/01/12 04:30:48;;;;;;;42.88;25.13;;;-3275.40;79.40;;;-3.65;86.98;97710.41;4923603;29;20495;-67
2022/01/12 04:33:14;;;;;;;40.55;25.55;;;-3275.50;79.20;;;-3.64;86.92;97717.22;4930583;29;20135;-67
2022/01/12 04:35:47;;;;;;;45.10;26.50;;;-3275.50;79.20;;;-3.62;87.36;97712.03;4927319;29;20511;-67
2022/01/12 04:38:13;;;;;;;42.45;25.27;;;-3275.50;79.30;;;-3.61;87.19;97701.69;4932972;29;20391;-67
2022/01/12 04:40:39;;;;;;;43.17;25.50;;;-3275.60;79.30;;;-3.58;87.64;97700.72;4929105;29;20405;-67
2022/01/12 04:43:07;;;;;;;41.45;24.45;;;-3275.60;79.40;;;-3.54;87.80;97707.41;4897754;29;20127;-67
2022/01/12 04:45:40;;;;;;;43.60;25.00;;;-3275.60;79.50;;;-3.48;87.64;97707.16;4916331;29;20123;-67
2022/01/12 04:50:41;;;;;;;43.38;25.27;;;-3275.80;79.60;;;-3.42;87.79;97718.03;4927436;29;20040;-66
2022/01/12 04:53:07;;;;;;;48.20;28.17;;;-3275.80;79.40;;;-3.40;87.93;97715.38;4914229;29;20040;-65
2022/01/12 04:55:33;;;;;;;86.72;54.55;;;-3275.80;79.80;;;-3.35;88.38;97717.78;4929285;29;20500;-66
2022/01/12 04:57:59;;;;;;;81.05;46.20;;;-3275.90;80.00;;;-3.30;88.15;97721.84;4932601;29;20404;-66
2022/01/12 05:00:26;;;;;;;57.88;33.45;;;-3275.90;79.80;;;-3.27;88.39;97716.56;4916993;29;20127;-66
2022/01/12 05:08:35;;;;;;;47.78;26.90;;;-3276.00;79.40;;;-3.22;88.28;97719.78;4927593;29;20091;-66
2022/01/12 05:13:48;;;;;;;49.17;27.80;;;-3276.00;79.20;;;-3.14;88.77;97725.44;4922351;29;20091;-65
2022/01/12 05:16:13;;;;;;;49.30;27.98;;;-3276.10;80.20;;;-3.10;88.46;97726.97;4912616;29;20044;-65
2022/01/12 05:18:41;;;;;;;58.65;32.95;;;-3276.10;79.80;;;-3.04;88.69;97738.75;4929491;29;20064;-65
2022/01/12 05:21:07;;;;;;;109.40;64.07;;;-3276.20;79.70;;;-3.01;88.57;97730.91;4912960;29;20135;-65
2022/01/12 05:23:32;;;;;;;56.33;33.38;;;-3276.30;79.80;;;-2.97;88.58;97744.47;4882158;29;20036;-65
2022/01/12 05:25:59;;;;;;;59.88;34.47;;;-3276.30;79.80;;;-2.91;88.69;97754.53;4897375;29;20046;-65
2022/01/12 05:28:25;;;;;;;52.28;30.23;;;-3276.30;79.80;;;-2.86;88.98;97757.72;4913430;29;20036;-65
2022/01/12 05:30:51;;;;;;;48.03;28.60;;;-3276.40;79.30;;;-2.82;88.67;97765.25;4925112;29;20066;-68
2022/01/12 05:33:17;;;;;;;53.97;31.30;;;-3276.40;79.10;;;-2.78;88.55;97768.53;4913076;29;20500;-65
2022/01/12 05:35:43;;;;;;;57.05;31.85;;;-3276.50;79.30;;;-2.74;88.39;97771.81;4897213;29;20489;-65
2022/01/12 05:38:11;;;;;;;89.03;50.38;;;-3276.50;79.10;;;-2.72;88.89;97770.00;4913073;29;20091;-65
2022/01/12 05:40:37;;;;;;;61.45;34.67;;;-3276.50;79.40;;;-2.70;88.67;97774.22;4913175;29;20051;-65
2022/01/12 05:43:02;;;;;;;51.67;29.75;;;-3276.50;79.30;;;-2.67;88.45;97763.78;4911633;29;20473;-65
2022/01/12 05:45:31;;;;;;;50.97;29.00;;;-3276.60;78.90;;;-2.64;88.70;97762.78;4912935;29;20040;-65
2022/01/12 05:50:23;;;;;;;45.75;26.52;;;-3276.70;78.90;;;-2.59;88.29;97766.84;4931991;29;20032;-65
2022/01/12 05:52:48;;;;;;;48.80;27.73;;;-3276.70;78.70;;;-2.58;88.13;97757.38;4931239;29;20062;-66
2022/01/12 05:55:14;;;;;;;53.90;29.30;;;-3276.70;79.00;;;-2.55;88.81;97763.22;4928064;29;20028;-66
2022/01/12 05:57:40;;;;;;;70.70;36.92;;;-3276.70;79.00;;;-2.55;88.44;97752.91;4928375;29;20024;-67
2022/01/12 06:00:09;;;;;;;96.53;54.35;;;-3276.60;78.50;;;-2.53;88.52;97766.56;4912649;29;20036;-65
2022/01/12 06:02:35;;;;;;;58.08;33.60;;;-3276.70;78.60;;;-2.51;88.00;97767.31;4919498;29;20043;-65
2022/01/12 06:05:01;;;;;;;51.65;29.63;;;0.00;78.50;;;-2.49;88.44;97765.53;4930893;29;20373;-66
2022/01/12 06:07:26;;;;;;;54.72;29.00;;;0.00;78.70;;;-2.45;88.32;97778.28;4931835;29;20551;-66
2022/01/12 06:09:52;;;;;;;49.03;29.30;;;0.00;78.60;;;-2.40;88.47;97776.34;4947617;29;20036;-66
2022/01/12 06:12:18;;;;;;;48.42;27.67;;;0.00;78.50;;;-2.39;88.11;97778.00;4945733;29;20047;-65
2022/01/12 06:14:43;;;;;;;50.80;28.52;;;0.00;78.30;;;-2.36;88.41;97783.03;4911986;29;20036;-65
2022/01/12 06:17:10;;;;;;;53.65;30.40;;;0.00;78.10;;;-2.33;88.25;97788.03;4911510;29;20036;-66
2022/01/12 06:19:36;;;;;;;51.15;29.50;;;0.00;78.10;;;-2.32;88.20;97794.84;4912725;29;20028;-66
2022/01/12 06:22:01;;;;;;;52.20;30.15;;;0.00;77.90;;;-2.30;87.97;97793.06;4896599;29;20043;-65
2022/01/12 06:24:28;;;;;;;83.68;48.60;;;0.10;78.10;;;-2.26;87.96;97804.91;4912323;29;20032;-65
2022/01/12 06:26:55;;;;;;;65.85;37.63;;;0.10;78.40;;;-2.24;88.02;97803.94;4912207;29;20042;-66
2022/01/12 06:31:54;;;;;;;56.53;31.90;;;0.20;78.10;;;-2.17;87.78;97809.66;4918243;29;20452;-65
2022/01/12 06:34:19;;;;;;;49.65;29.15;;;0.20;78.40;;;-2.16;87.92;97816.47;4931185;29;20040;-65
2022/01/12 06:36:45;;;;;;;49.33;28.60;;;0.20;78.10;;;-2.14;88.10;97812.09;4930774;29;20380;-65
2022/01/12 06:39:14;;;;;;;46.88;26.90;;;0.20;77.90;;;-2.13;88.03;97815.50;4931127;29;20539;-65
2022/01/12 06:41:40;;;;;;;49.65;28.33;;;0.20;78.10;;;-2.14;87.59;97819.81;4931052;29;20055;-65
2022/01/12 06:44:06;;;;;;;46.00;28.85;;;0.20;77.90;;;-2.14;87.67;97830.13;4931028;29;20487;-65
2022/01/12 06:46:34;;;;;;;77.85;46.70;;;0.20;77.80;;;-2.14;88.02;97832.72;4916792;29;20523;-65
2022/01/12 06:49:00;;;;;;;65.88;35.85;;;0.20;77.90;;;-2.15;87.47;97841.34;4921305;29;20039;-65
2022/01/12 06:51:25;;;;;;;71.70;41.42;;;0.20;77.60;;;-2.16;87.69;97850.00;4931081;29;20036;-65
2022/01/12 06:53:53;;;;;;;50.45;30.95;;;0.10;77.60;;;-2.19;87.72;97857.88;4932399;29;20035;-65
2022/01/12 06:56:19;;;;;;;48.90;29.65;;;0.10;77.70;;;-2.23;87.25;97848.59;4934062;29;20046;-66
2022/01/12 06:58:44;;;;;;;48.00;28.38;;;0.10;77.70;;;-2.24;87.46;97849.50;4934704;28;20036;-66
2022/01/12 07:01:10;;;;;;;51.25;29.90;;;0.10;77.90;;;-2.23;87.74;97846.03;4950706;28;20055;-66
2022/01/12 07:03:36;;;;;;;52.47;31.05;;;0.10;78.10;;;-2.22;87.79;97847.69;4936402;28;20040;-66
2022/01/12 07:06:02;;;;;;;50.47;30.48;;;0.10;77.90;;;-2.23;87.72;97846.03;4934571;29;20036;-67
2022/01/12 07:08:27;;;;;;;46.75;28.52;;;0.10;77.70;;;-2.23;87.06;97840.88;4934887;29;20062;-67
2022/01/12 07:10:53;;;;;;;49.85;28.10;;;0.10;77.80;;;-2.23;87.38;97851.19;4934054;28;20035;-66
2022/01/12 07:13:19;;;;;;;52.15;29.92;;;0.10;77.70;;;-2.24;87.32;97858.06;4934841;29;20503;-67
2022/01/12 07:15:45;;;;;;;51.53;30.05;;;0.10;77.80;;;-2.23;87.24;97866.66;4950424;28;20043;-67
2022/01/12 07:18:11;;;;;;;51.63;30.42;;;0.10;77.70;;;-2.27;87.60;97860.75;4934645;29;20040;-67
2022/01/12 07:20:36;;;;;;;49.45;28.40;;;0.00;78.20;;;-2.29;87.04;97866.88;4950714;28;20043;-67
2022/01/12 07:23:02;;;;;;;50.60;29.40;;;0.00;78.20;;;-2.31;87.21;97868.69;4917915;29;20040;-67
2022/01/12 07:25:28;;;;;;;44.20;26.95;;;0.00;78.00;;;-2.36;87.16;97875.78;4931293;29;20036;-67
2022/01/12 07:27:54;;;;;;;51.85;29.05;;;-3276.50;78.30;;;-2.39;86.94;97881.09;4915497;29;20032;-67
2022/01/12 07:30:22;;;;;;;52.55;29.65;;;-3276.60;78.30;;;-2.44;87.06;97883.03;4899771;29;20131;-67
2022/01/12 07:32:48;;;;;;;54.75;30.75;;;-3276.50;78.60;;;-2.45;87.47;97889.09;4914988;29;20036;-67
2022/01/12 07:35:14;;;;;;;53.33;30.83;;;-3276.60;78.60;;;-2.50;87.50;97894.41;4915171;29;20412;-67
2022/01/12 07:37:40;;;;;;;54.05;30.15;;;-3276.60;78.50;;;-2.51;87.63;97890.16;4916598;29;20044;-67
2022/01/12 07:40:07;;;;;;;50.92;30.40;;;-3276.60;78.40;;;-2.51;87.31;97890.16;4924963;29;20153;-67
2022/01/12 07:42:33;;;;;;;51.53;30.65;;;-3276.60;78.40;;;-2.51;87.49;97897.88;4950099;29;20035;-67
2022/01/12 07:45:01;;;;;;;51.00;28.77;;;-3276.70;78.10;;;-2.50;87.31;97908.13;4932541;28;20042;-67
2022/01/12 07:47:27;;;;;;;56.60;31.10;;;-3276.70;78.10;;;-2.48;87.72;97916.66;4930882;29;20110;-66
2022/01/12 07:49:53;;;;;;;53.17;30.45;;;-3276.70;78.30;;;-2.49;87.63;97912.41;4939241;28;20036;-66
2022/01/12 07:52:19;;;;;;;54.15;30.95;;;-3276.70;78.40;;;-2.50;87.70;97908.13;4930908;29;20055;-66
2022/01/12 07:54:45;;;;;;;53.17;32.67;;;-3276.70;78.40;;;-2.48;87.85;97903.78;4914288;29;20056;-66
2022/01/12 07:57:11;;;;;;;52.35;31.60;;;-3276.70;78.20;;;-2.46;87.91;97916.59;4914868;29;20028;-67
2022/01/12 07:59:36;;;;;;;52.88;30.90;;;-3276.70;78.00;;;-2.47;87.25;97923.47;4915016;29;20036;-67
2022/01/12 08:02:02;;;;;;;54.63;30.70;;;-3276.70;78.00;;;-2.45;87.69;97930.31;4930614;29;20070;-66
2022/01/12 08:04:28;;;;;;;52.80;30.45;;;0.00;77.80;;;-2.45;87.58;97928.56;4938727;29;20098;-67
2022/01/12 08:06:54;;;;;;;54.05;32.53;;;0.00;77.70;;;-2.42;87.19;97928.44;4913979;28;20393;-67
2022/01/12 08:09:19;;;;;;;53.72;31.92;;;0.00;77.80;;;-2.40;87.06;97941.25;4930688;29;20086;-67
2022/01/12 08:11:45;;;;;;;57.55;33.00;;;0.00;77.70;;;-2.37;87.27;97936.81;4930450;29;20074;-67
2022/01/12 08:14:12;;;;;;;54.42;31.00;;;0.00;77.80;;;-2.33;87.60;97948.66;4914452;29;20048;-67
2022/01/12 08:16:38;;;;;;;54.33;32.25;;;0.10;77.80;;;-2.31;87.61;97946.03;4914705;29;20033;-67
2022/01/12 08:19:03;;;;;;;56.50;32.33;;;0.10;77.80;;;-2.28;87.33;97945.88;4926595;28;20031;-67
2022/01/12 08:21:29;;;;;;;61.88;32.83;;;0.10;77.60;;;-2.25;87.52;97945.78;4949706;29;20035;-67
2022/01/12 08:23:55;;;;;;;52.22;31.15;;;0.10;77.40;;;-2.24;87.11;97943.13;4949465;28;20043;-67
2022/01/12 08:26:21;;;;;;;62.72;34.80;;;0.10;77.50;;;-2.23;87.11;97944.81;4949001;28;20511;-67
2022/01/12 08:28:46;;;;;;;57.13;33.67;;;0.10;77.50;;;-2.22;87.43;97943.06;4933033;28;20503;-67
2022/01/12 08:31:12;;;;;;;58.08;33.00;;;0.10;77.90;;;-2.22;87.61;97930.19;4949183;28;20047;-67
2022/01/12 08:33:38;;;;;;;58.83;33.17;;;0.20;77.70;;;-2.19;87.19;97933.47;4948103;28;20063;-67
2022/01/12 08:36:04;;;;;;;60.45;33.92;;;0.20;77.50;;;-2.18;87.41;97936.88;4949005;28;20035;-67
2022/01/12 08:38:30;;;;;;;57.90;33.10;;;0.20;77.40;;;-2.16;87.59;97932.50;4917591;29;20032;-67
2022/01/12 08:40:56;;;;;;;56.70;32.97;;;0.20;77.20;;;-2.16;87.22;97935.06;4948415;28;20111;-66
2022/01/12 08:43:21;;;;;;;57.38;32.47;;;0.20;76.80;;;-2.13;87.30;97934.94;4933282;29;20043;-66
2022/01/12 08:45:47;;;;;;;58.55;32.70;;;0.20;76.90;;;-2.08;86.94;97938.16;4931479;29;20093;-66
2022/01/12 08:48:13;;;;;;;55.67;32.20;;;0.30;76.80;;;-2.06;86.95;97943.22;4930315;29;20040;-65
2022/01/12 08:50:39;;;;;;;50.95;30.40;;;0.40;76.90;;;-2.04;86.62;97944.84;4934323;28;20060;-66
2022/01/12 08:53:06;;;;;;;49.75;30.90;;;0.30;76.30;;;-2.07;86.65;97944.97;4932376;29;20066;-67
2022/01/12 08:55:32;;;;;;;74.25;38.40;;;0.20;76.30;;;-2.06;86.66;97941.50;4932588;29;20515;-67
2022/01/12 08:57:58;;;;;;;72.78;37.80;;;0.30;77.00;;;-2.03;87.02;97948.28;4931280;29;20523;-67
2022/01/12 09:00:25;;;;;;;57.72;33.58;;;0.40;76.70;;;-2.03;86.50;97948.28;4929756;29;20531;-67
2022/01/12 09:02:51;;;;;;;61.80;34.30;;;0.30;75.90;;;-1.99;86.77;97942.91;4913225;29;20047;-68
2022/01/12 09:05:16;;;;;;;54.17;32.22;;;0.50;76.30;;;-1.97;86.37;97940.28;4913456;29;20040;-67
2022/01/12 09:07:42;;;;;;;54.72;31.83;;;0.40;75.80;;;-1.94;86.10;97940.97;4913903;29;20488;-67
2022/01/12 09:10:08;;;;;;;60.08;33.40;;;0.40;75.60;;;-1.93;86.75;97941.81;4929350;29;20036;-68
2022/01/12 09:12:36;;;;;;;55.67;32.20;;;0.40;76.30;;;-1.94;86.00;97953.03;4913650;29;20046;-68
2022/01/12 09:15:06;;;;;;;60.95;34.35;;;0.40;75.80;;;-1.91;86.06;97955.47;4913508;29;20038;-68
2022/01/12 09:17:32;;;;;;;53.00;31.55;;;0.40;75.90;;;-1.91;85.67;97960.63;4913536;29;20047;-67
2022/01/12 09:19:57;;;;;;;49.78;30.77;;;0.30;75.70;;;-1.90;85.82;97972.63;4913600;29;20083;-67
2022/01/12 09:22:23;;;;;;;53.65;30.70;;;0.40;75.60;;;-1.90;85.70;97965.72;4930362;29;20146;-65
2022/01/12 09:24:49;;;;;;;47.72;28.35;;;0.40;75.30;;;-1.90;85.49;97968.31;4912715;29;20040;-65
2022/01/12 09:27:16;;;;;;;48.10;28.63;;;0.40;75.20;;;-1.93;85.52;97963.28;4929145;29;20469;-66
2022/01/12 09:29:42;;;;;;;46.40;27.70;;;0.40;75.20;;;-1.96;85.14;97958.25;4913463;29;20523;-66
2022/01/12 09:32:08;;;;;;;49.85;28.98;;;0.30;75.20;;;-1.95;85.28;97965.09;4912903;29;20131;-66
2022/01/12 09:34:34;;;;;;;49.05;29.45;;;0.20;75.10;;;-1.99;85.32;97963.56;4930009;29;20122;-66
2022/01/12 09:37:00;;;;;;;50.97;30.42;;;0.20;75.60;;;-1.98;85.39;97960.06;4928455;29;20032;-66
2022/01/12 09:39:26;;;;;;;50.85;29.67;;;0.30;75.70;;;-1.97;85.42;97961.75;4918857;29;20055;-68
2022/01/12 09:41:51;;;;;;;52.28;30.88;;;0.40;75.90;;;-1.98;85.33;97954.91;4948151;28;20039;-67
2022/01/12 09:44:18;;;;;;;55.45;31.48;;;0.20;76.00;;;-2.03;85.52;97948.28;4932059;28;20051;-67
2022/01/12 09:46:43;;;;;;;56.10;33.10;;;0.20;76.80;;;-2.06;85.45;97949.22;4921175;29;20119;-66
2022/01/12 09:49:10;;;;;;;54.88;32.15;;;0.10;76.80;;;-2.06;85.78;97956.97;4919282;29;20115;-66
2022/01/12 09:51:36;;;;;;;54.88;31.98;;;0.20;77.20;;;-2.06;86.13;97940.66;4931849;29;20087;-66
2022/01/12 09:54:01;;;;;;;54.92;33.08;;;0.20;77.10;;;-2.07;86.25;97954.44;4947618;29;20368;-66
2022/01/12 09:56:29;;;;;;;57.00;33.28;;;0.10;77.40;;;-2.12;86.35;97951.25;4931627;29;20077;-66
2022/01/12 09:58:57;;;;;;;54.40;31.23;;;0.10;77.80;;;-2.09;86.52;97957.09;4931296;29;20146;-66
2022/01/12 10:01:33;;;;;;;51.05;31.17;;;0.20;77.20;;;-2.05;86.68;97957.78;4928290;29;20048;-66
2022/01/12 10:04:16;;;;;;;57.58;29.85;;;0.40;76.80;;;-2.01;86.43;97964.53;4928048;29;20032;-67
2022/01/12 10:06:53;;;;;;;53.22;31.17;;;0.50;76.20;;;-1.95;86.76;97959.94;4928549;29;20075;-66
2022/01/12 10:09:24;;;;;;;53.88;31.58;;;0.60;76.10;;;-1.89;86.77;97959.66;4912362;29;20032;-67
2022/01/12 10:12:00;;;;;;;54.58;30.73;;;0.60;76.10;;;-1.82;86.75;97959.38;4897403;29;20048;-66
2022/01/12 10:14:38;;;;;;;53.47;30.55;;;0.70;75.90;;;-1.74;86.56;97954.75;4912407;29;20051;-66
2022/01/12 10:17:03;;;;;;;52.03;30.85;;;0.80;75.40;;;-1.68;86.13;97959.63;4916092;29;20035;-67
2022/01/12 10:19:33;;;;;;;55.28;32.65;;;0.90;75.40;;;-1.60;86.23;97957.53;4947538;29;20059;-67
2022/01/12 10:22:02;;;;;;;65.25;37.78;;;1.00;75.20;;;-1.53;86.39;97956.38;4915650;29;20044;-67
2022/01/12 10:24:28;;;;;;;53.53;32.13;;;1.10;75.10;;;-1.48;86.02;97949.25;4930540;29;20122;-67
2022/01/12 10:26:55;;;;;;;53.30;30.77;;;1.10;74.70;;;-1.43;85.87;97957.63;4905948;29;20119;-67
2022/01/12 10:29:31;;;;;;;49.78;30.65;;;1.10;74.40;;;-1.39;85.82;97948.00;4911215;29;20039;-66
2022/01/12 10:32:04;;;;;;;51.25;30.27;;;1.10;74.30;;;-1.36;85.22;97942.69;4911524;29;20039;-67
2022/01/12 10:34:42;;;;;;;49.55;30.55;;;1.10;74.20;;;-1.35;85.48;97954.72;4880222;29;20028;-64
2022/01/12 10:37:12;;;;;;;49.25;29.80;;;1.10;74.30;;;-1.33;85.53;97950.31;4895791;29;20396;-66
2022/01/12 10:39:43;;;;;;;49.65;30.20;;;1.10;74.20;;;-1.32;85.34;97950.25;4911663;29;20040;-66
2022/01/12 10:42:11;;;;;;;49.30;30.20;;;1.10;74.20;;;-1.29;85.28;97942.34;4927610;29;20063;-66
2022/01/12 10:44:42;;;;;;;53.47;31.63;;;1.20;74.60;;;-1.26;85.47;97949.94;4929783;29;20416;-67
2022/01/12 10:47:21;;;;;;;52.70;31.88;;;1.20;74.70;;;-1.25;84.96;97935.28;4945627;28;20038;-67
2022/01/12 10:50:00;;;;;;;52.53;30.45;;;1.20;74.40;;;-1.21;85.44;97935.97;4930578;29;20031;-67
2022/01/12 10:52:39;;;;;;;53.50;31.38;;;1.20;74.40;;;-1.23;85.65;97934.31;4936401;29;20127;-67
2022/01/12 10:55:10;;;;;;;52.88;32.00;;;1.20;74.30;;;-1.22;85.07;97935.16;4924906;29;20036;-69
2022/01/12 10:57:42;;;;;;;53.35;31.77;;;1.20;74.10;;;-1.19;85.41;97939.31;4929137;29;20438;-67
2022/01/12 11:00:22;;;;;;;49.42;30.35;;;1.30;74.40;;;-1.13;85.33;97934.75;4914765;29;20178;-67
2022/01/12 11:02:53;;;;;;;52.10;31.20;;;1.30;74.20;;;-1.10;85.54;97929.44;4915667;29;20043;-68
2022/01/12 11:05:21;;;;;;;49.22;30.17;;;1.40;74.30;;;-1.07;84.95;97938.78;4913189;29;20038;-67
2022/01/12 11:07:48;;;;;;;48.08;29.55;;;1.40;73.70;;;-1.08;84.85;97947.44;4926945;29;20096;-66
2022/01/12 11:10:14;;;;;;;50.92;31.08;;;1.40;73.40;;;-1.04;85.01;97948.94;4926875;29;20075;-66
2022/01/12 11:12:39;;;;;;;49.13;30.92;;;1.50;73.90;;;-1.00;84.59;97950.47;4924313;29;20036;-66
2022/01/12 11:15:12;;;;;;;47.58;29.40;;;1.60;73.60;;;-0.94;84.67;97943.28;4913531;28;21155;-67
2022/01/12 11:17:38;;;;;;;47.88;29.83;;;1.60;73.30;;;-0.90;84.57;97940.56;4945425;29;20419;-66
2022/01/12 11:20:33;;;;;;;46.85;29.00;;;1.60;73.20;;;-0.87;83.63;97935.25;4930195;29;20028;-66